Time;durP1;ratioP1;P1;durP2;ratioP2;P2;SDS_P1;SDS_P2;PMS_P1;PMS_P2;Temp;Humidity;BMP_temperature;BMP_pressure;BME280_temperature;BME280_humidity;BME280_pressure;Samples;Min_cycle;Max_cycle;Signal;HPM_P1;HPM_P2
2022/01/09 00:01:08;;;;;;;39.60;23.50;;;0.80;99.90;;;;;;5010245;28;20034;-76
2022/01/09 00:03:34;;;;;;;42.65;24.33;;;0.70;99.90;;;;;;5010062;28;20030;-74
2022/01/09 00:05:59;;;;;;;53.45;31.55;;;0.70;99.90;;;;;;5009830;28;20026;-74
2022/01/09 00:08:26;;;;;;;55.50;30.60;;;0.70;99.90;;;;;;5010092;28;20097;-75
2022/01/09 00:10:52;;;;;;;48.20;27.23;;;0.70;99.90;;;;;;5009418;28;20096;-74
2022/01/09 00:13:18;;;;;;;59.55;31.52;;;0.70;99.90;;;;;;5009541;28;20461;-75
2022/01/09 00:15:44;;;;;;;59.60;31.30;;;0.70;99.90;;;;;;4990479;28;20038;-74
2022/01/09 00:18:11;;;;;;;54.33;30.30;;;0.80;99.90;;;;;;4973012;28;20027;-75
2022/01/09 00:20:36;;;;;;;49.65;27.38;;;0.80;99.90;;;;;;4990674;28;20061;-75
2022/01/09 00:23:02;;;;;;;55.65;31.05;;;0.70;99.90;;;;;;4990742;28;20046;-75
2022/01/09 00:25:29;;;;;;;47.05;27.25;;;0.70;99.90;;;;;;4990640;28;20396;-75
2022/01/09 00:27:55;;;;;;;46.03;26.48;;;0.80;99.90;;;;;;4990140;28;20105;-76
2022/01/09 00:30:23;;;;;;;46.15;27.00;;;0.80;99.90;;;;;;4989330;28;20042;-75
2022/01/09 00:32:51;;;;;;;51.00;27.58;;;0.80;99.90;;;;;;4994514;28;20137;-75
2022/01/09 00:35:17;;;;;;;41.67;25.40;;;0.70;99.90;;;;;;5002497;28;20036;-74
2022/01/09 00:37:44;;;;;;;41.78;25.75;;;0.80;99.90;;;;;;5010107;28;20049;-75
2022/01/09 00:40:12;;;;;;;39.22;24.55;;;0.80;99.90;;;;;;5013517;28;20477;-76
2022/01/09 00:42:38;;;;;;;42.70;25.52;;;0.80;99.90;;;;;;5013562;28;20021;-75
2022/01/09 00:45:06;;;;;;;40.65;25.88;;;0.80;99.90;;;;;;5013376;28;20116;-74
2022/01/09 00:47:32;;;;;;;44.88;25.90;;;0.90;99.90;;;;;;5013324;28;20037;-76
2022/01/09 00:49:59;;;;;;;45.28;26.23;;;0.90;99.90;;;;;;5013222;28;20033;-76
2022/01/09 00:52:25;;;;;;;47.13;27.50;;;1.00;99.90;;;;;;5006764;28;20125;-74
2022/01/09 00:54:51;;;;;;;43.38;28.83;;;1.00;99.90;;;;;;5013470;28;20032;-75
2022/01/09 00:57:17;;;;;;;47.00;28.95;;;1.10;99.90;;;;;;5013101;28;20109;-74
2022/01/09 00:59:43;;;;;;;46.03;27.95;;;1.10;99.90;;;;;;5013696;28;20026;-76
2022/01/09 01:02:09;;;;;;;44.22;28.02;;;1.00;99.90;;;;;;5013481;28;20030;-75
2022/01/09 01:04:35;;;;;;;38.10;25.27;;;1.00;99.90;;;;;;5013697;28;20022;-73
2022/01/09 01:07:01;;;;;;;41.95;27.42;;;1.00;99.90;;;;;;5013602;28;20443;-75
2022/01/09 01:09:30;;;;;;;35.92;24.17;;;0.90;99.90;;;;;;5013278;28;20134;-74
2022/01/09 01:12:01;;;;;;;40.38;26.25;;;1.00;99.90;;;;;;5013110;28;20033;-73
2022/01/09 01:14:27;;;;;;;40.92;25.50;;;1.10;99.90;;;;;;5013455;28;20034;-75
2022/01/09 01:16:54;;;;;;;41.25;26.02;;;1.10;99.90;;;;;;5013067;28;20022;-76
2022/01/09 01:19:21;;;;;;;43.53;26.08;;;1.00;99.90;;;;;;5012870;28;20029;-73
2022/01/09 01:21:47;;;;;;;41.88;24.83;;;1.00;99.90;;;;;;5013190;28;20680;-74
2022/01/09 01:24:13;;;;;;;43.35;28.67;;;1.00;99.90;;;;;;5013167;28;20053;-72
2022/01/09 01:26:40;;;;;;;43.92;28.08;;;1.10;99.90;;;;;;5012850;28;20025;-76
2022/01/09 01:29:06;;;;;;;40.72;26.55;;;1.00;99.90;;;;;;5012970;28;20076;-74
2022/01/09 01:31:32;;;;;;;45.83;26.27;;;1.00;99.90;;;;;;5007104;28;20026;-77
2022/01/09 01:33:58;;;;;;;41.38;26.05;;;1.00;99.90;;;;;;5012680;28;20112;-75
2022/01/09 01:36:24;;;;;;;40.63;23.42;;;1.10;99.90;;;;;;5005992;28;20096;-76
2022/01/09 01:38:50;;;;;;;39.63;23.42;;;1.10;99.90;;;;;;5010981;28;20034;-77
2022/01/09 01:41:16;;;;;;;36.25;22.83;;;1.10;99.90;;;;;;5012436;28;20575;-77
2022/01/09 01:43:42;;;;;;;38.72;23.63;;;1.10;99.90;;;;;;5012626;28;20029;-75
2022/01/09 01:46:08;;;;;;;36.72;22.98;;;1.00;99.90;;;;;;5012979;28;20557;-77
2022/01/09 01:48:34;;;;;;;31.70;21.00;;;1.10;99.90;;;;;;5012714;28;20042;-75
2022/01/09 01:50:59;;;;;;;33.80;21.88;;;1.10;99.90;;;;;;5012569;28;20528;-75
2022/01/09 01:53:26;;;;;;;35.08;21.58;;;1.10;99.90;;;;;;5012566;28;20523;-77
2022/01/09 01:55:55;;;;;;;29.55;20.08;;;1.10;99.90;;;;;;5012286;28;20219;-74
2022/01/09 01:58:26;;;;;;;31.25;20.35;;;1.10;99.90;;;;;;5012203;28;20049;-75
2022/01/09 02:00:52;;;;;;;34.55;19.30;;;1.10;99.90;;;;;;5012511;28;20033;-75
2022/01/09 02:03:19;;;;;;;31.23;19.30;;;1.10;99.90;;;;;;5012546;28;20022;-73
2022/01/09 02:05:46;;;;;;;31.55;18.83;;;1.00;99.90;;;;;;5012521;28;20061;-73
2022/01/09 02:08:12;;;;;;;28.88;18.50;;;1.00;99.90;;;;;;5003874;28;20017;-75
2022/01/09 02:10:40;;;;;;;32.28;19.40;;;1.00;99.90;;;;;;5010978;28;20481;-74
2022/01/09 02:13:07;;;;;;;31.02;19.35;;;1.00;99.90;;;;;;5010711;28;20026;-74
2022/01/09 02:15:37;;;;;;;30.85;18.33;;;1.00;99.90;;;;;;5010881;28;20034;-75
2022/01/09 02:18:10;;;;;;;31.45;19.55;;;0.90;99.90;;;;;;5010863;28;20052;-74
2022/01/09 02:20:37;;;;;;;29.77;18.50;;;0.90;99.90;;;;;;5012179;28;20026;-73
2022/01/09 02:23:08;;;;;;;32.20;19.38;;;0.90;99.90;;;;;;5012431;28;20048;-75
2022/01/09 02:25:35;;;;;;;32.75;19.42;;;0.90;99.90;;;;;;4994140;28;20026;-76
2022/01/09 02:28:02;;;;;;;32.83;21.17;;;0.90;99.90;;;;;;5011627;28;20014;-76
2022/01/09 02:30:32;;;;;;;32.10;19.02;;;0.90;99.90;;;;;;5011958;28;20124;-74
2022/01/09 02:32:59;;;;;;;29.77;19.23;;;0.90;99.90;;;;;;5011793;28;20026;-75
2022/01/09 02:35:26;;;;;;;31.55;18.08;;;0.90;99.90;;;;;;5012024;28;20112;-74
2022/01/09 02:37:53;;;;;;;31.85;17.98;;;0.90;99.90;;;;;;5011995;28;20026;-75
2022/01/09 02:40:19;;;;;;;29.55;18.73;;;0.90;99.90;;;;;;5011856;28;20022;-73
2022/01/09 02:42:45;;;;;;;31.33;20.02;;;1.00;99.90;;;;;;5012008;28;20033;-75
2022/01/09 02:45:11;;;;;;;35.42;22.67;;;1.00;99.90;;;;;;5011230;28;20019;-74
2022/01/09 02:47:38;;;;;;;32.67;21.33;;;1.00;99.90;;;;;;5011929;28;20092;-74
2022/01/09 02:50:17;;;;;;;34.88;20.67;;;1.00;99.90;;;;;;5011685;28;20062;-76
2022/01/09 02:52:52;;;;;;;36.95;22.00;;;1.00;99.90;;;;;;5011676;28;20076;-75
2022/01/09 02:55:20;;;;;;;33.55;21.95;;;1.00;99.90;;;;;;5011395;28;20083;-74
2022/01/09 02:57:57;;;;;;;44.42;26.50;;;1.00;99.90;;;;;;5011160;28;20046;-74
2022/01/09 03:00:28;;;;;;;49.50;29.77;;;0.90;99.90;;;;;;5011349;28;20141;-74
2022/01/09 03:02:55;;;;;;;50.17;28.40;;;0.80;99.90;;;;;;4994083;28;20502;-74
2022/01/09 03:05:22;;;;;;;50.80;26.85;;;0.80;99.90;;;;;;4977961;28;20665;-75
2022/01/09 03:07:49;;;;;;;45.67;28.10;;;0.70;99.90;;;;;;5011125;28;20032;-75
2022/01/09 03:10:18;;;;;;;45.72;26.73;;;0.70;99.90;;;;;;5011216;28;20044;-74
2022/01/09 03:12:44;;;;;;;43.55;26.05;;;0.60;99.90;;;;;;5011553;28;20022;-75
2022/01/09 03:15:11;;;;;;;47.60;27.40;;;0.60;99.90;;;;;;5011495;28;20473;-74
2022/01/09 03:17:39;;;;;;;47.03;26.95;;;0.50;99.90;;;;;;5011438;28;20040;-74
2022/01/09 03:20:10;;;;;;;41.20;25.08;;;0.50;99.90;;;;;;5011512;28;20072;-72
2022/01/09 03:22:36;;;;;;;49.13;27.10;;;0.60;99.90;;;;;;5011331;28;20036;-72
2022/01/09 03:25:02;;;;;;;43.42;27.15;;;0.50;99.90;;;;;;5010894;28;20022;-73
2022/01/09 03:27:28;;;;;;;46.97;28.58;;;0.50;99.90;;;;;;5010936;28;20033;-73
2022/01/09 03:29:54;;;;;;;45.30;26.52;;;0.40;99.90;;;;;;5010917;28;20042;-73
2022/01/09 03:32:21;;;;;;;47.58;27.67;;;0.50;99.90;;;;;;5011237;28;20018;-73
2022/01/09 03:34:47;;;;;;;49.80;26.17;;;0.50;99.90;;;;;;5011066;28;20570;-75
2022/01/09 03:37:13;;;;;;;41.35;24.83;;;0.50;99.90;;;;;;5011296;28;20163;-74
2022/01/09 03:39:40;;;;;;;43.78;27.30;;;0.60;99.90;;;;;;5011140;28;20030;-73
2022/01/09 03:42:06;;;;;;;53.17;32.53;;;0.50;99.90;;;;;;5010655;28;20021;-74
2022/01/09 03:44:32;;;;;;;71.47;40.33;;;0.50;99.90;;;;;;5011228;28;20112;-74
2022/01/09 03:46:58;;;;;;;61.88;36.00;;;0.50;99.90;;;;;;5011086;28;20038;-74
2022/01/09 03:49:24;;;;;;;50.80;32.80;;;0.50;99.90;;;;;;5010783;28;20038;-73
2022/01/09 03:51:52;;;;;;;67.63;38.53;;;0.50;99.90;;;;;;5011036;28;20115;-74
2022/01/09 03:54:21;;;;;;;56.38;31.88;;;0.50;99.90;;;;;;5011035;28;20425;-74
2022/01/09 03:56:48;;;;;;;53.60;32.65;;;0.60;99.90;;;;;;5010741;28;20041;-73
2022/01/09 03:59:15;;;;;;;74.90;44.80;;;0.60;99.90;;;;;;5010682;28;20034;-72
2022/01/09 04:01:41;;;;;;;65.05;35.47;;;0.60;99.90;;;;;;5010935;28;20119;-72
2022/01/09 04:04:06;;;;;;;55.22;34.05;;;0.60;99.90;;;;;;5010588;28;20022;-73
2022/01/09 04:06:33;;;;;;;55.45;34.83;;;0.60;99.90;;;;;;5010754;28;20022;-74
2022/01/09 04:09:06;;;;;;;64.47;39.38;;;0.60;99.90;;;;;;5010154;28;20038;-75
2022/01/09 04:11:39;;;;;;;63.42;38.30;;;0.60;99.90;;;;;;4993186;28;20100;-72
2022/01/09 04:14:06;;;;;;;57.72;34.88;;;0.50;99.90;;;;;;5013058;28;20125;-74
2022/01/09 04:16:32;;;;;;;71.57;43.03;;;0.40;99.90;;;;;;5014481;28;20076;-74
2022/01/09 04:18:58;;;;;;;84.38;49.75;;;0.50;99.90;;;;;;5014562;28;20120;-72
2022/01/09 04:21:24;;;;;;;70.93;44.20;;;0.40;99.90;;;;;;4997086;28;20388;-73
2022/01/09 04:23:49;;;;;;;75.25;47.45;;;0.40;99.90;;;;;;5013982;28;20076;-72
2022/01/09 04:26:17;;;;;;;75.43;49.35;;;0.30;99.90;;;;;;5014052;28;20460;-73
2022/01/09 04:28:44;;;;;;;74.90;45.55;;;0.30;99.90;;;;;;5014257;28;20500;-74
2022/01/09 04:31:10;;;;;;;61.60;39.72;;;0.20;99.90;;;;;;5014197;28;20105;-73
2022/01/09 04:33:36;;;;;;;65.53;39.67;;;0.20;99.90;;;;;;5014348;28;20528;-73
2022/01/09 04:36:02;;;;;;;60.95;40.30;;;0.20;99.90;;;;;;5014189;28;20026;-72
2022/01/09 04:38:28;;;;;;;58.78;39.53;;;0.20;99.90;;;;;;4996288;28;20033;-71
2022/01/09 04:40:53;;;;;;;61.92;38.28;;;0.20;99.90;;;;;;5013962;28;20077;-71
2022/01/09 04:43:20;;;;;;;64.88;39.22;;;0.20;99.90;;;;;;5013993;28;20037;-72
2022/01/09 04:45:46;;;;;;;67.68;43.10;;;0.20;99.90;;;;;;5013800;28;20024;-73
2022/01/09 04:48:13;;;;;;;71.70;45.88;;;0.10;99.90;;;;;;4996142;28;20049;-73
2022/01/09 04:50:42;;;;;;;65.15;40.78;;;0.10;99.90;;;;;;5013988;28;20028;-73
2022/01/09 04:53:09;;;;;;;61.13;39.60;;;0.10;99.90;;;;;;5013861;28;20029;-72
2022/01/09 04:55:38;;;;;;;61.38;41.33;;;0.10;99.90;;;;;;5013872;28;20049;-74
2022/01/09 04:58:05;;;;;;;75.18;45.25;;;0.10;99.90;;;;;;4996252;28;20054;-73
2022/01/09 05:00:31;;;;;;;71.78;43.40;;;0.10;99.90;;;;;;5013503;28;20045;-74
2022/01/09 05:02:57;;;;;;;61.88;40.08;;;0.10;99.90;;;;;;5013378;28;20488;-73
2022/01/09 05:05:24;;;;;;;61.17;40.15;;;0.10;99.90;;;;;;5013043;28;20026;-73
2022/01/09 05:07:50;;;;;;;67.15;41.70;;;0.00;99.90;;;;;;5013332;28;20554;-73
2022/01/09 05:10:16;;;;;;;66.40;43.60;;;0.10;99.90;;;;;;5013334;28;20073;-73
2022/01/09 05:12:42;;;;;;;60.78;39.88;;;-0.10;99.90;;;;;;4995608;28;20030;-73
2022/01/09 05:15:10;;;;;;;64.10;42.33;;;0.00;99.90;;;;;;5013481;28;20033;-73
2022/01/09 05:17:36;;;;;;;70.47;43.55;;;0.00;99.90;;;;;;5013068;28;20041;-73
2022/01/09 05:20:03;;;;;;;72.68;42.80;;;-0.10;99.90;;;;;;5013376;28;20794;-73
2022/01/09 05:22:30;;;;;;;66.18;41.17;;;-0.20;99.90;;;;;;5013576;28;20057;-73
2022/01/09 05:25:02;;;;;;;57.15;39.70;;;-0.20;99.90;;;;;;5012854;28;20080;-72
2022/01/09 05:27:29;;;;;;;71.38;43.08;;;-0.30;99.90;;;;;;5013353;28;20388;-73
2022/01/09 05:29:55;;;;;;;71.00;41.40;;;-0.30;99.90;;;;;;5013307;28;20468;-73
2022/01/09 05:32:21;;;;;;;81.63;49.28;;;-0.30;99.90;;;;;;5012836;28;20055;-72
2022/01/09 05:34:47;;;;;;;89.40;52.17;;;-0.30;99.90;;;;;;5013452;28;20038;-73
2022/01/09 05:37:13;;;;;;;102.63;59.75;;;-0.30;99.90;;;;;;5012958;28;20022;-73
2022/01/09 05:39:40;;;;;;;76.40;45.78;;;-0.30;99.90;;;;;;5012946;28;20069;-73
2022/01/09 05:42:08;;;;;;;75.38;47.38;;;-0.40;99.90;;;;;;5012708;28;20076;-73
2022/01/09 05:44:34;;;;;;;81.10;48.90;;;-0.50;99.90;;;;;;5009572;28;20030;-72
2022/01/09 05:47:01;;;;;;;72.20;46.30;;;-0.50;99.90;;;;;;5012862;28;20029;-72
2022/01/09 05:49:28;;;;;;;74.65;43.78;;;-0.40;99.90;;;;;;5012503;28;20038;-72
2022/01/09 05:51:54;;;;;;;67.30;43.22;;;-0.40;99.90;;;;;;5012912;28;20423;-71
2022/01/09 05:54:21;;;;;;;90.25;54.72;;;-0.50;99.90;;;;;;5012838;28;20108;-73
2022/01/09 05:56:47;;;;;;;63.88;39.00;;;-0.50;99.90;;;;;;5012476;28;20021;-73
2022/01/09 05:59:13;;;;;;;65.70;37.47;;;-0.50;99.90;;;;;;5012414;28;20117;-73
2022/01/09 06:01:39;;;;;;;55.63;36.97;;;-0.60;99.90;;;;;;5012533;28;20068;-73
2022/01/09 06:04:05;;;;;;;69.35;41.25;;;-0.60;99.90;;;;;;5012745;28;20033;-73
2022/01/09 06:06:32;;;;;;;84.28;51.30;;;-0.60;99.90;;;;;;5012707;28;20046;-73
2022/01/09 06:08:58;;;;;;;142.35;80.82;;;-0.70;99.90;;;;;;5012119;28;20045;-72
2022/01/09 06:11:27;;;;;;;167.02;94.38;;;-0.70;99.90;;;;;;5012489;28;20076;-73
2022/01/09 06:13:53;;;;;;;159.52;92.28;;;-0.70;99.90;;;;;;4994810;28;20505;-72
2022/01/09 06:16:19;;;;;;;153.20;89.90;;;-0.60;99.90;;;;;;5012309;28;20034;-73
2022/01/09 06:18:45;;;;;;;114.75;65.15;;;-0.60;99.90;;;;;;5012331;28;20037;-73
2022/01/09 06:21:11;;;;;;;158.38;92.93;;;-0.60;99.90;;;;;;5012516;28;20406;-72
2022/01/09 06:23:37;;;;;;;147.07;81.50;;;-0.60;99.90;;;;;;5012351;28;20026;-73
2022/01/09 06:26:03;;;;;;;123.32;73.63;;;-0.60;99.90;;;;;;5012411;28;20404;-72
2022/01/09 06:28:29;;;;;;;122.05;67.68;;;-0.60;99.90;;;;;;5012312;28;20117;-73
2022/01/09 06:30:55;;;;;;;100.90;61.50;;;-0.60;99.90;;;;;;5011924;28;20022;-71
2022/01/09 06:33:22;;;;;;;99.43;63.00;;;-0.60;99.90;;;;;;5011948;28;20034;-73
2022/01/09 06:35:47;;;;;;;140.73;83.85;;;-0.70;99.90;;;;;;4993615;28;20695;-74
2022/01/09 06:38:14;;;;;;;150.55;88.30;;;-0.70;99.90;;;;;;5011919;28;20110;-72
2022/01/09 06:40:39;;;;;;;143.00;85.68;;;-0.60;99.90;;;;;;5010695;28;20831;-71
2022/01/09 06:43:06;;;;;;;113.55;65.93;;;-0.60;99.90;;;;;;5011778;28;20030;-72
2022/01/09 06:45:32;;;;;;;121.63;73.78;;;-0.60;99.90;;;;;;5011303;28;20053;-70
2022/01/09 06:47:59;;;;;;;167.85;97.78;;;-0.50;99.90;;;;;;5011696;28;20026;-69
2022/01/09 06:50:26;;;;;;;141.20;83.65;;;-0.50;99.90;;;;;;5010770;28;20044;-70
2022/01/09 06:52:52;;;;;;;268.88;164.07;;;-0.50;99.90;;;;;;5010581;28;20018;-71
2022/01/09 06:55:18;;;;;;;259.23;152.45;;;-0.40;99.90;;;;;;5008530;28;20049;-71
2022/01/09 06:57:45;;;;;;;279.25;162.30;;;-0.40;99.90;;;;;;5006255;28;20046;-70
2022/01/09 07:00:13;;;;;;;222.15;133.15;;;-0.40;99.90;;;;;;5008810;28;20037;-70
2022/01/09 07:02:39;;;;;;;196.48;122.05;;;-0.40;99.90;;;;;;4994883;28;20041;-71
2022/01/09 07:05:06;;;;;;;328.55;190.18;;;-0.30;99.90;;;;;;5009203;28;20018;-70
2022/01/09 07:07:32;;;;;;;299.23;179.02;;;-0.20;99.90;;;;;;5010501;28;20037;-71
2022/01/09 07:09:58;;;;;;;200.23;119.47;;;-0.10;99.90;;;;;;5008491;28;20038;-69
2022/01/09 07:12:24;;;;;;;138.60;83.25;;;-0.10;99.90;;;;;;5010187;28;20452;-70
2022/01/09 07:14:50;;;;;;;101.13;64.88;;;0.10;99.90;;;;;;5010193;28;20026;-70
2022/01/09 07:17:16;;;;;;;102.20;60.13;;;0.10;99.90;;;;;;5010017;28;20026;-70
2022/01/09 07:19:42;;;;;;;141.07;89.60;;;0.30;99.90;;;;;;5010610;28;20396;-71
2022/01/09 07:22:08;;;;;;;188.75;116.60;;;0.20;99.90;;;;;;4992679;28;20041;-71
2022/01/09 07:24:35;;;;;;;88.80;54.90;;;0.30;99.90;;;;;;5010816;28;20088;-70
2022/01/09 07:27:01;;;;;;;125.65;78.78;;;0.40;99.90;;;;;;5007288;28;20026;-72
2022/01/09 07:29:27;;;;;;;134.88;87.45;;;0.40;99.90;;;;;;5002923;28;20030;-71
2022/01/09 07:31:53;;;;;;;61.20;37.22;;;0.50;99.90;;;;;;5009140;28;20026;-71
2022/01/09 07:34:20;;;;;;;157.63;95.72;;;0.60;99.90;;;;;;5010835;28;20523;-70
2022/01/09 07:36:46;;;;;;;70.53;50.90;;;0.50;99.90;;;;;;5010284;28;20437;-70
2022/01/09 07:39:12;;;;;;;79.03;53.30;;;0.50;99.90;;;;;;5009935;28;20377;-70
2022/01/09 07:41:41;;;;;;;104.38;63.35;;;0.60;99.90;;;;;;5010360;28;20419;-72
2022/01/09 07:44:07;;;;;;;59.88;37.72;;;0.80;99.90;;;;;;5010009;28;20033;-70
2022/01/09 07:46:33;;;;;;;60.58;40.72;;;0.80;99.90;;;;;;5010621;28;20022;-71
2022/01/09 07:48:59;;;;;;;64.28;41.05;;;0.90;99.90;;;;;;5014438;28;20083;-71
2022/01/09 07:51:25;;;;;;;84.30;54.72;;;1.00;99.90;;;;;;5014337;28;20487;-71
2022/01/09 07:53:51;;;;;;;64.97;42.40;;;1.00;99.90;;;;;;5014905;28;20026;-72
2022/01/09 07:56:17;;;;;;;71.75;47.58;;;1.10;99.90;;;;;;5014288;28;20026;-72
2022/01/09 07:58:43;;;;;;;51.67;33.10;;;1.20;99.90;;;;;;4995136;28;20050;-70
2022/01/09 08:01:09;;;;;;;55.28;35.22;;;1.30;99.90;;;;;;4995106;28;20030;-71
2022/01/09 08:03:35;;;;;;;60.45;37.45;;;1.40;99.90;;;;;;4994936;28;20037;-72
2022/01/09 08:06:02;;;;;;;40.95;24.05;;;1.50;99.90;;;;;;4994685;28;20027;-72
2022/01/09 08:08:28;;;;;;;41.88;25.45;;;1.30;99.90;;;;;;4994478;28;20145;-70
2022/01/09 08:10:54;;;;;;;49.08;29.48;;;1.50;99.90;;;;;;5001069;28;20124;-72
2022/01/09 08:13:20;;;;;;;53.67;32.22;;;1.60;99.90;;;;;;5013841;28;20022;-72
2022/01/09 08:15:47;;;;;;;46.05;28.63;;;1.60;99.90;;;;;;4996446;28;20026;-70
2022/01/09 08:18:13;;;;;;;58.88;37.63;;;1.70;99.90;;;;;;5013637;28;20022;-71
2022/01/09 08:20:39;;;;;;;47.10;29.40;;;1.70;99.90;;;;;;5013523;28;20384;-69
2022/01/09 08:23:05;;;;;;;41.88;25.58;;;1.70;99.90;;;;;;4995892;28;20053;-70
2022/01/09 08:25:31;;;;;;;54.00;32.67;;;1.60;99.90;;;;;;5013939;28;20393;-70
2022/01/09 08:27:57;;;;;;;41.95;26.50;;;1.70;99.90;;;;;;5013366;28;20014;-72
2022/01/09 08:30:25;;;;;;;37.75;22.40;;;1.80;99.90;;;;;;5012955;28;20491;-72
2022/01/09 08:32:53;;;;;;;40.65;26.40;;;1.70;99.90;;;;;;5013041;28;20132;-71
2022/01/09 08:35:23;;;;;;;34.90;23.05;;;1.90;99.90;;;;;;5011880;28;20035;-74
2022/01/09 08:37:51;;;;;;;35.15;21.00;;;2.00;99.90;;;;;;5006436;28;20025;-73
2022/01/09 08:40:22;;;;;;;34.72;22.10;;;1.90;99.90;;;;;;5013641;28;20104;-71
2022/01/09 08:42:53;;;;;;;33.55;19.63;;;1.90;99.90;;;;;;5013771;28;20033;-72
2022/01/09 08:45:20;;;;;;;36.38;20.02;;;2.10;99.90;;;;;;5013591;28;20025;-71
2022/01/09 08:47:46;;;;;;;35.83;21.83;;;2.20;99.90;;;;;;5013796;28;20017;-71
2022/01/09 08:50:14;;;;;;;34.95;21.48;;;2.30;99.90;;;;;;5012278;28;20042;-72
2022/01/09 08:52:40;;;;;;;34.53;20.38;;;2.40;99.90;;;;;;5013169;28;20022;-72
2022/01/09 08:55:08;;;;;;;40.95;23.52;;;2.30;99.90;;;;;;5012700;28;20025;-72
2022/01/09 08:57:34;;;;;;;39.50;24.33;;;2.50;99.90;;;;;;5012411;28;20077;-72
2022/01/09 09:00:00;;;;;;;40.65;23.67;;;2.50;99.90;;;;;;5012692;28;20060;-73
2022/01/09 09:02:25;;;;;;;42.97;25.27;;;2.50;99.90;;;;;;5013633;28;20057;-71
2022/01/09 09:04:51;;;;;;;39.38;23.50;;;2.50;99.90;;;;;;5013528;28;20423;-72
2022/01/09 09:07:23;;;;;;;43.85;25.42;;;2.60;99.90;;;;;;5013343;28;20033;-72
2022/01/09 09:09:50;;;;;;;46.63;25.40;;;2.50;99.90;;;;;;5012950;28;20050;-73
2022/01/09 09:12:17;;;;;;;37.55;21.73;;;2.50;99.90;;;;;;5013349;28;20464;-72
2022/01/09 09:14:43;;;;;;;55.47;30.55;;;2.50;99.90;;;;;;5013415;28;20038;-72
2022/01/09 09:17:09;;;;;;;58.60;32.42;;;2.60;99.90;;;;;;5012937;28;20033;-72
2022/01/09 09:19:35;;;;;;;31.27;19.33;;;2.80;99.90;;;;;;5013295;28;20116;-71
2022/01/09 09:22:00;;;;;;;34.75;20.95;;;2.60;99.90;;;;;;5013106;28;20033;-71
2022/01/09 09:24:27;;;;;;;43.72;25.52;;;2.70;99.90;;;;;;5013173;28;20468;-73
2022/01/09 09:26:53;;;;;;;44.85;27.17;;;2.70;99.90;;;;;;5013004;28;20018;-72
2022/01/09 09:29:19;;;;;;;74.70;38.30;;;2.90;99.90;;;;;;5012848;28;20038;-72
2022/01/09 09:31:45;;;;;;;79.93;39.10;;;3.00;99.90;;;;;;5012797;28;20468;-73
2022/01/09 09:34:11;;;;;;;85.93;42.45;;;3.00;99.90;;;;;;5014024;28;20427;-73
2022/01/09 09:36:37;;;;;;;57.58;30.88;;;3.10;99.90;;;;;;4995271;28;20029;-72
2022/01/09 09:39:05;;;;;;;30.63;18.58;;;3.20;99.90;;;;;;5011478;28;20285;-73
2022/01/09 09:41:31;;;;;;;28.08;17.48;;;3.00;99.90;;;;;;5011695;28;20130;-73
2022/01/09 09:43:57;;;;;;;61.72;34.08;;;3.00;99.90;;;;;;5012069;28;20575;-72
2022/01/09 09:46:25;;;;;;;29.25;16.85;;;3.10;99.90;;;;;;4998465;28;20033;-72
2022/01/09 09:48:54;;;;;;;30.35;20.45;;;3.00;99.90;;;;;;5005676;28;20490;-71
2022/01/09 09:51:24;;;;;;;32.92;19.08;;;3.10;99.90;;;;;;5012148;28;20045;-72
2022/01/09 09:53:51;;;;;;;38.22;22.70;;;3.00;99.90;;;;;;5011898;28;20026;-72
2022/01/09 09:56:17;;;;;;;46.33;29.80;;;3.00;99.90;;;;;;5012073;28;20274;-72
2022/01/09 09:58:47;;;;;;;63.40;40.92;;;3.10;99.90;;;;;;5012286;28;20048;-72
2022/01/09 10:01:33;;;;;;;79.40;47.75;;;3.10;99.90;;;;;;5012558;28;20443;-73
2022/01/09 10:04:03;;;;;;;54.20;32.72;;;3.30;99.90;;;;;;5012432;28;20103;-72
2022/01/09 10:06:46;;;;;;;76.03;42.90;;;3.30;99.90;;;;;;5011622;28;20036;-73
2022/01/09 10:09:14;;;;;;;;;;;3.30;99.90;;;;;;5011946;28;20046;-73
2022/01/09 10:12:00;;;;;;;29.30;17.38;;;3.30;99.90;;;;;;5010164;28;19963;-72
2022/01/09 10:14:34;;;;;;;29.27;17.15;;;2.90;99.90;;;;;;5011952;28;20112;-73
2022/01/09 10:17:16;;;;;;;29.10;18.05;;;2.90;99.90;;;;;;5011829;28;20030;-73
2022/01/09 10:19:46;;;;;;;26.63;17.00;;;3.00;99.90;;;;;;5011324;28;20044;-71
2022/01/09 10:22:28;;;;;;;27.83;15.80;;;2.90;99.90;;;;;;5011704;28;20422;-74
2022/01/09 10:24:56;;;;;;;31.45;18.15;;;2.90;99.90;;;;;;5011778;28;20045;-72
2022/01/09 10:27:33;;;;;;;28.30;18.52;;;3.00;99.90;;;;;;5011707;28;20029;-74
2022/01/09 10:30:01;;;;;;;26.38;16.20;;;3.00;99.90;;;;;;5011744;28;20064;-75
2022/01/09 10:32:31;;;;;;;25.40;15.93;;;3.10;99.90;;;;;;5011620;28;20022;-71
2022/01/09 10:35:18;;;;;;;29.15;16.45;;;2.90;99.90;;;;;;4993651;28;20109;-77
2022/01/09 10:37:46;;;;;;;26.92;15.68;;;2.90;99.90;;;;;;5009169;28;20088;-75
2022/01/09 10:40:23;;;;;;;31.75;19.02;;;2.90;99.90;;;;;;5010839;28;20052;-75
2022/01/09 10:43:10;;;;;;;30.05;16.42;;;3.00;99.90;;;;;;5003952;28;20033;-72
2022/01/09 10:45:41;;;;;;;27.30;17.90;;;2.90;99.90;;;;;;5009507;28;20476;-71
2022/01/09 10:48:09;;;;;;;26.63;16.38;;;2.90;99.90;;;;;;5010813;28;20296;-77
2022/01/09 10:50:39;;;;;;;29.23;17.13;;;2.90;99.90;;;;;;5011387;28;20064;-77
2022/01/09 10:53:18;;;;;;;27.65;14.73;;;3.10;99.90;;;;;;5011307;28;20052;-75
2022/01/09 10:56:00;;;;;;;29.05;16.75;;;3.20;99.90;;;;;;5011049;28;20444;-77
2022/01/09 10:58:27;;;;;;;28.13;18.17;;;3.00;99.90;;;;;;5010250;28;20060;-76
2022/01/09 11:01:15;;;;;;;35.25;20.90;;;3.10;99.90;;;;;;4993782;28;20251;-74
2022/01/09 11:03:45;;;;;;;38.30;22.17;;;3.00;99.90;;;;;;5011620;28;20105;-77
2022/01/09 11:06:12;;;;;;;31.45;18.55;;;3.10;99.90;;;;;;5011594;28;20022;-75
2022/01/09 11:08:39;;;;;;;32.28;19.58;;;2.80;99.90;;;;;;4992947;28;20080;-78
2022/01/09 11:11:14;;;;;;;26.30;15.63;;;3.00;99.90;;;;;;4994165;28;20038;-78
2022/01/09 11:13:43;;;;;;;26.60;16.45;;;3.10;99.90;;;;;;5011060;28;20026;-75
2022/01/09 11:18:57;;;;;;;29.83;17.42;;;3.30;99.90;;;;;;4991376;28;20045;-77
2022/01/09 11:21:22;;;;;;;29.42;17.08;;;3.20;99.90;;;;;;4958263;28;20666;-76
2022/01/09 11:24:07;;;;;;;27.40;15.77;;;3.40;99.90;;;;;;4991157;28;20031;-78
2022/01/09 11:26:45;;;;;;;28.58;17.45;;;3.30;99.90;;;;;;4973669;28;20554;-77
2022/01/09 11:29:15;;;;;;;28.88;16.83;;;3.30;99.90;;;;;;4991476;28;20034;-74
2022/01/09 11:32:34;;;;;;;26.75;16.38;;;3.50;99.90;;;;;;4991700;28;20500;-74
2022/01/09 11:35:19;;;;;;;26.48;15.98;;;3.70;99.90;;;;;;4973880;28;20034;-78
2022/01/09 11:37:56;;;;;;;29.13;17.85;;;3.50;99.90;;;;;;4991180;28;20031;-75
2022/01/09 11:40:28;;;;;;;35.35;19.88;;;3.60;99.90;;;;;;4978826;28;20479;-73
2022/01/09 11:43:03;;;;;;;25.02;15.43;;;3.60;99.90;;;;;;5003795;28;20057;-79
2022/01/09 11:46:00;;;;;;;31.80;19.25;;;3.80;99.90;;;;;;4999978;28;20026;-75
2022/01/09 11:49:06;;;;;;;29.35;18.77;;;3.80;99.90;;;;;;5009624;28;20049;-77
2022/01/09 11:51:34;;;;;;;35.28;20.92;;;3.70;99.90;;;;;;4968859;28;20031;-78
2022/01/09 11:54:05;;;;;;;38.97;20.48;;;3.30;99.90;;;;;;4967042;28;20126;-79
2022/01/09 11:56:56;;;;;;;37.45;23.13;;;3.30;99.90;;;;;;4967516;28;20051;-75
2022/01/09 11:59:48;;;;;;;39.90;24.75;;;3.30;99.90;;;;;;4964566;28;20043;-79
2022/01/09 12:02:14;;;;;;;40.05;22.80;;;3.40;99.90;;;;;;4961401;28;20154;-79
2022/01/09 12:04:40;;;;;;;33.05;19.02;;;3.40;99.90;;;;;;4959306;28;20540;-79
2022/01/09 12:07:13;;;;;;;29.55;16.55;;;3.40;99.90;;;;;;4965632;28;20764;-78
2022/01/09 12:09:41;;;;;;;29.23;16.75;;;3.70;99.90;;;;;;4967293;28;20050;-79
2022/01/09 12:12:12;;;;;;;30.13;16.58;;;3.60;99.90;;;;;;4952524;28;20045;-79
2022/01/09 12:15:04;;;;;;;30.25;19.48;;;3.50;99.90;;;;;;4969258;28;20105;-79
2022/01/09 12:17:42;;;;;;;32.75;19.30;;;3.40;99.90;;;;;;4973351;28;20030;-78
2022/01/09 12:20:12;;;;;;;37.13;22.80;;;3.40;99.90;;;;;;4979339;28;20026;-86
2022/01/09 12:25:30;;;;;;;32.20;19.38;;;3.40;99.90;;;;;;4965178;28;20050;-75
2022/01/09 12:28:03;;;;;;;41.47;25.17;;;3.50;99.90;;;;;;4987403;28;20034;-79
2022/01/09 12:30:41;;;;;;;44.72;26.95;;;3.60;99.90;;;;;;4974623;28;20035;-78
2022/01/09 12:33:35;;;;;;;34.10;18.50;;;3.30;99.90;;;;;;4976874;28;20037;-78
2022/01/09 12:36:11;;;;;;;33.70;19.15;;;3.40;99.90;;;;;;4993586;28;20080;-77
2022/01/09 12:38:47;;;;;;;36.38;22.92;;;3.20;99.90;;;;;;4993955;28;20025;-78
2022/01/09 12:41:16;;;;;;;28.90;18.73;;;3.20;99.90;;;;;;4994132;28;20038;-78
2022/01/09 12:43:42;;;;;;;30.08;18.20;;;3.20;99.90;;;;;;4993774;28;20027;-78
2022/01/09 12:46:17;;;;;;;24.30;14.95;;;3.30;99.90;;;;;;4973257;28;20505;-79